createdAt,value
2022-10-13T00:01:15.589Z,14.60
2022-10-13T00:03:46.102Z,14.55
2022-10-13T00:06:18.649Z,14.53
2022-10-13T00:08:46.623Z,14.13
2022-10-13T00:11:16.534Z,14.73
2022-10-13T00:13:45.091Z,15.00
2022-10-13T00:16:15.126Z,14.95
2022-10-13T00:18:43.427Z,14.02
2022-10-13T00:21:13.939Z,15.00
2022-10-13T00:23:43.123Z,14.82
2022-10-13T00:26:13.742Z,15.25
2022-10-13T00:28:41.681Z,14.93
2022-10-13T00:31:16.894Z,14.50
2022-10-13T00:33:44.610Z,15.10
2022-10-13T00:36:12.179Z,15.25
2022-10-13T00:38:39.806Z,15.27
2022-10-13T00:41:08.905Z,14.90
2022-10-13T00:43:55.001Z,14.77
2022-10-13T00:46:22.641Z,14.90
2022-10-13T00:48:51.741Z,14.63
2022-10-13T00:51:23.064Z,14.57
2022-10-13T00:53:51.431Z,14.70
2022-10-13T00:56:22.685Z,14.45
2022-10-13T00:58:50.831Z,15.27
2022-10-13T01:01:18.446Z,14.30
2022-10-13T01:03:46.014Z,14.95
2022-10-13T01:06:14.231Z,15.55
2022-10-13T01:08:41.805Z,15.25
2022-10-13T01:11:35.226Z,15.55
2022-10-13T01:14:12.746Z,15.05
2022-10-13T01:16:50.039Z,15.68
2022-10-13T01:19:46.829Z,15.38
2022-10-13T01:22:32.676Z,15.15
2022-10-13T01:25:10.301Z,17.08
2022-10-13T01:27:53.059Z,16.40
2022-10-13T01:30:23.646Z,16.00
2022-10-13T01:33:05.829Z,15.02
2022-10-13T01:35:46.418Z,15.10
2022-10-13T01:38:23.586Z,14.73
2022-10-13T01:40:57.227Z,15.07
2022-10-13T01:43:28.909Z,15.32
2022-10-13T01:46:02.551Z,14.57
2022-10-13T01:48:30.845Z,14.50
2022-10-13T01:51:00.321Z,14.27
2022-10-13T01:53:30.028Z,14.63
2022-10-13T01:56:00.322Z,14.23
2022-10-13T01:58:30.965Z,14.18
2022-10-13T02:01:13.870Z,14.37
2022-10-13T02:03:49.688Z,14.27
2022-10-13T02:06:23.122Z,15.05
2022-10-13T02:08:59.823Z,15.07
2022-10-13T02:11:28.789Z,14.65
2022-10-13T02:14:04.399Z,14.80
2022-10-13T02:16:37.976Z,15.17
2022-10-13T02:19:07.251Z,14.63
2022-10-13T02:21:35.656Z,14.73
2022-10-13T02:24:03.752Z,14.68
2022-10-13T02:26:32.607Z,13.98
2022-10-13T02:29:00.427Z,13.87
2022-10-13T02:31:28.030Z,13.48
2022-10-13T02:33:56.928Z,13.15
2022-10-13T02:36:24.990Z,13.27
2022-10-13T02:38:52.577Z,13.27
2022-10-13T02:41:20.173Z,13.88
2022-10-13T02:43:47.706Z,14.00
2022-10-13T02:46:15.253Z,14.10
2022-10-13T02:48:42.902Z,14.10
2022-10-13T02:51:14.918Z,13.73
2022-10-13T02:53:42.493Z,14.45
2022-10-13T02:56:12.597Z,15.02
2022-10-13T02:58:40.138Z,14.40
2022-10-13T03:01:08.479Z,14.20
2022-10-13T03:03:37.012Z,14.13
2022-10-13T03:06:04.790Z,14.70
2022-10-13T03:08:34.926Z,13.10
2022-10-13T03:11:02.576Z,13.90
2022-10-13T03:13:30.378Z,13.20
2022-10-13T03:15:58.134Z,12.77
2022-10-13T03:18:25.875Z,13.25
2022-10-13T03:20:58.986Z,13.52
2022-10-13T03:23:27.040Z,13.50
2022-10-13T03:25:55.977Z,14.23
2022-10-13T03:28:23.976Z,13.55
2022-10-13T03:30:51.823Z,14.30
2022-10-13T03:33:19.399Z,13.90
2022-10-13T03:35:46.920Z,14.67
2022-10-13T03:38:14.456Z,13.73
2022-10-13T03:40:41.982Z,14.73
2022-10-13T03:43:10.826Z,14.23
2022-10-13T03:45:38.366Z,14.40
2022-10-13T03:48:06.210Z,13.40
2022-10-13T03:50:33.779Z,14.60
2022-10-13T03:53:01.645Z,14.00
2022-10-13T03:55:29.228Z,14.10
2022-10-13T03:57:56.939Z,14.20
2022-10-13T04:00:25.902Z,15.07
2022-10-13T04:02:53.462Z,14.60
2022-10-13T04:05:21.005Z,15.05
2022-10-13T04:07:48.538Z,15.15
2022-10-13T04:10:16.178Z,13.95
2022-10-13T04:12:43.702Z,14.73
2022-10-13T04:15:11.987Z,14.85
2022-10-13T04:17:40.881Z,14.90
2022-10-13T04:20:09.775Z,15.52
2022-10-13T04:22:37.369Z,14.98
2022-10-13T04:25:06.015Z,15.05
2022-10-13T04:27:34.073Z,15.90
2022-10-13T04:30:01.771Z,14.98
2022-10-13T04:32:29.371Z,14.93
2022-10-13T04:34:58.336Z,15.85
2022-10-13T04:37:26.409Z,15.23
2022-10-13T04:39:53.985Z,15.63
2022-10-13T04:42:21.951Z,15.15
2022-10-13T04:44:49.926Z,14.93
2022-10-13T04:47:17.494Z,15.15
2022-10-13T04:49:45.055Z,14.77
2022-10-13T04:52:14.085Z,15.13
2022-10-13T04:54:42.297Z,14.82
2022-10-13T04:57:09.846Z,14.73
2022-10-13T04:59:37.517Z,14.55
2022-10-13T05:02:05.062Z,14.23
2022-10-13T05:04:32.603Z,14.30
2022-10-13T05:07:17.049Z,14.00
2022-10-13T05:09:46.819Z,14.60
2022-10-13T05:12:14.394Z,14.32
2022-10-13T05:14:42.018Z,13.80
2022-10-13T05:17:09.864Z,13.38
2022-10-13T05:19:37.458Z,13.60
2022-10-13T05:22:05.123Z,13.98
2022-10-13T05:24:37.172Z,13.98
2022-10-13T05:27:07.861Z,21.25
2022-10-13T05:29:35.663Z,20.25
2022-10-13T05:32:03.231Z,14.10
2022-10-13T05:34:31.002Z,14.95
2022-10-13T05:36:58.538Z,14.60
2022-10-13T05:39:26.242Z,15.10
2022-10-13T05:41:53.803Z,14.90
2022-10-13T05:44:22.926Z,14.70
2022-10-13T05:46:50.709Z,14.63
2022-10-13T05:49:18.309Z,14.73
2022-10-13T05:51:48.566Z,14.75
2022-10-13T05:54:21.370Z,15.23
2022-10-13T05:56:53.441Z,15.15
2022-10-13T05:59:27.068Z,14.35
2022-10-13T06:01:55.559Z,15.82
2022-10-13T06:04:26.747Z,15.23
2022-10-13T06:06:54.312Z,14.88
2022-10-13T06:09:22.082Z,16.30
2022-10-13T06:11:49.722Z,16.10
2022-10-13T06:14:17.700Z,15.77
2022-10-13T06:16:46.602Z,16.10
2022-10-13T06:19:14.159Z,15.32
2022-10-13T06:21:42.031Z,15.57
2022-10-13T06:24:09.972Z,15.20
2022-10-13T06:26:37.652Z,15.32
2022-10-13T06:29:05.471Z,15.45
2022-10-13T06:31:33.158Z,15.50
2022-10-13T06:34:02.098Z,17.45
2022-10-13T06:36:29.702Z,15.18
2022-10-13T06:38:57.242Z,16.00
2022-10-13T06:41:24.839Z,14.80
2022-10-13T06:43:52.399Z,14.68
2022-10-13T06:46:20.506Z,13.85
2022-10-13T06:48:50.248Z,13.88
2022-10-13T06:51:19.383Z,13.00
2022-10-13T06:53:47.036Z,13.10
2022-10-13T06:56:15.213Z,14.75
2022-10-13T06:58:42.746Z,19.05
2022-10-13T07:01:13.529Z,24.70
2022-10-13T07:03:41.081Z,37.00
2022-10-13T07:06:09.373Z,15.27
2022-10-13T07:08:38.241Z,12.75
2022-10-13T07:11:15.330Z,59.58
2022-10-13T07:13:46.529Z,62.33
2022-10-13T07:16:15.562Z,24.52
2022-10-13T07:18:43.144Z,19.95
2022-10-13T07:21:10.729Z,16.65
2022-10-13T07:23:39.607Z,13.45
2022-10-13T07:26:09.143Z,12.10
2022-10-13T07:28:36.729Z,14.07
2022-10-13T07:31:09.610Z,26.10
2022-10-13T07:33:37.214Z,17.13
2022-10-13T07:36:05.121Z,13.32
2022-10-13T07:38:32.690Z,11.80
2022-10-13T07:41:03.095Z,12.70
2022-10-13T07:43:30.993Z,11.30
2022-10-13T07:45:59.516Z,28.80
2022-10-13T07:48:27.898Z,14.68
2022-10-13T07:50:55.430Z,11.95
2022-10-13T07:53:23.026Z,13.43
2022-10-13T07:55:50.889Z,13.38
2022-10-13T07:58:19.769Z,12.43
2022-10-13T08:00:56.089Z,11.52
2022-10-13T08:03:23.672Z,13.25
2022-10-13T08:05:51.254Z,9.85
2022-10-13T08:08:18.817Z,11.80
2022-10-13T08:10:46.434Z,19.50
2022-10-13T08:13:14.602Z,24.67
2022-10-13T08:15:44.421Z,20.85
2022-10-13T08:18:14.102Z,11.88
2022-10-13T08:20:43.820Z,10.88
2022-10-13T08:23:12.389Z,11.07
2022-10-13T08:25:40.414Z,9.75
2022-10-13T08:28:12.719Z,10.43
2022-10-13T08:30:40.366Z,10.20
2022-10-13T08:33:09.343Z,9.97
2022-10-13T08:35:36.942Z,9.73
2022-10-13T08:38:04.589Z,11.10
2022-10-13T08:40:32.478Z,12.07
2022-10-13T08:43:00.668Z,14.40
2022-10-13T08:45:46.933Z,12.77
2022-10-13T08:48:20.793Z,14.43
2022-10-13T08:50:52.799Z,12.02
2022-10-13T08:53:26.767Z,11.40
2022-10-13T08:55:58.407Z,11.35
2022-10-13T08:58:29.064Z,11.35
2022-10-13T09:01:06.523Z,11.88
2022-10-13T09:03:44.733Z,10.40
2022-10-13T09:06:16.559Z,11.52
2022-10-13T09:08:46.505Z,10.87
2022-10-13T09:11:14.126Z,10.48
2022-10-13T09:13:41.722Z,11.20
2022-10-13T09:16:09.645Z,12.13
2022-10-13T09:18:38.638Z,11.48
2022-10-13T09:21:19.350Z,11.70
2022-10-13T09:23:47.388Z,11.40
2022-10-13T09:26:21.256Z,11.93
2022-10-13T09:28:49.518Z,12.02
2022-10-13T09:31:19.526Z,12.00
2022-10-13T09:33:58.490Z,12.80
2022-10-13T09:36:26.662Z,12.48
2022-10-13T09:39:12.958Z,12.10
2022-10-13T09:41:41.746Z,12.70
2022-10-13T09:44:13.950Z,14.55
2022-10-13T09:46:49.775Z,15.43
2022-10-13T09:49:34.564Z,15.48
2022-10-13T09:52:04.583Z,14.70
2022-10-13T09:54:43.082Z,14.33
2022-10-13T09:57:17.465Z,14.70
2022-10-13T09:59:49.551Z,14.82
2022-10-13T10:02:26.686Z,13.27
2022-10-13T10:05:00.649Z,13.10
2022-10-13T10:07:32.682Z,12.90
2022-10-13T10:10:05.379Z,13.73
2022-10-13T10:12:37.258Z,13.87
2022-10-13T10:15:20.318Z,14.10
2022-10-13T10:17:56.137Z,15.02
2022-10-13T10:21:00.573Z,17.08
2022-10-13T10:23:43.655Z,15.32
2022-10-13T10:26:22.130Z,16.15
2022-10-13T10:29:06.722Z,16.55
2022-10-13T10:31:47.707Z,15.50
2022-10-13T10:34:31.149Z,13.98
2022-10-13T10:37:14.466Z,12.25
2022-10-13T10:39:48.734Z,13.13
2022-10-13T10:42:35.039Z,12.67
2022-10-13T10:45:10.434Z,12.80
2022-10-13T10:47:43.070Z,12.93
2022-10-13T10:50:16.532Z,12.90
2022-10-13T10:52:53.525Z,12.65
2022-10-13T10:55:31.079Z,13.90
2022-10-13T10:58:07.993Z,13.85
2022-10-13T11:00:43.055Z,15.32
2022-10-13T11:03:17.513Z,15.90
2022-10-13T11:06:02.903Z,15.73
2022-10-13T11:08:40.609Z,16.00
2022-10-13T11:11:37.710Z,17.35
2022-10-13T11:14:31.840Z,15.90
2022-10-13T11:17:31.017Z,16.03
2022-10-13T11:20:00.286Z,15.47
2022-10-13T11:22:29.107Z,15.55
2022-10-13T11:25:02.278Z,13.88
2022-10-13T11:27:45.064Z,12.75
2022-10-13T11:30:43.081Z,12.60
2022-10-13T11:33:48.575Z,12.80
2022-10-13T11:36:52.438Z,11.13
2022-10-13T11:39:47.516Z,11.82
2022-10-13T11:42:37.863Z,12.35
2022-10-13T11:45:19.536Z,11.10
2022-10-13T11:48:23.937Z,14.38
2022-10-13T11:51:04.866Z,12.43
2022-10-13T11:53:41.808Z,11.80
2022-10-13T11:56:20.639Z,13.65
2022-10-13T11:58:48.246Z,13.13
2022-10-13T12:01:19.378Z,12.70
2022-10-13T12:03:47.802Z,12.95
2022-10-13T12:06:33.072Z,12.57
2022-10-13T12:09:08.452Z,12.20
2022-10-13T12:11:38.846Z,13.15
2022-10-13T12:14:21.205Z,13.30
2022-10-13T12:19:31.899Z,13.80
2022-10-13T12:22:01.134Z,14.20
2022-10-13T12:24:30.346Z,13.70
2022-10-13T12:26:59.385Z,12.70
2022-10-13T12:29:32.197Z,11.93
2022-10-13T12:32:05.852Z,12.95
2022-10-13T12:34:36.297Z,12.10
2022-10-13T12:37:06.520Z,12.82
2022-10-13T12:39:36.664Z,13.27
2022-10-13T12:42:05.493Z,13.65
2022-10-13T12:44:33.670Z,13.82
2022-10-13T12:47:03.738Z,13.68
2022-10-13T12:49:34.565Z,14.40
2022-10-13T12:52:06.807Z,15.18
2022-10-13T12:54:37.485Z,13.68
2022-10-13T12:57:16.296Z,12.98
2022-10-13T12:59:44.366Z,13.10
2022-10-13T13:02:21.383Z,14.05
2022-10-13T13:04:50.685Z,12.88
2022-10-13T13:07:32.147Z,12.82
2022-10-13T13:10:15.018Z,12.73
2022-10-13T13:12:43.428Z,13.50
2022-10-13T13:15:33.855Z,12.48
2022-10-13T13:18:25.161Z,12.88
2022-10-13T13:20:54.746Z,13.30
2022-10-13T13:23:23.366Z,12.60
2022-10-13T13:26:02.081Z,14.23
2022-10-13T13:28:31.513Z,13.35
2022-10-13T13:30:59.577Z,13.38
2022-10-13T13:33:27.167Z,13.15
2022-10-13T13:35:56.257Z,13.02
2022-10-13T13:38:23.857Z,14.50
2022-10-13T13:40:51.402Z,13.15
2022-10-13T13:43:18.962Z,12.68
2022-10-13T13:46:37.003Z,13.68
2022-10-13T13:49:04.611Z,12.30
2022-10-13T13:51:34.112Z,12.90
2022-10-13T13:54:01.787Z,14.23
2022-10-13T13:56:29.321Z,14.55
2022-10-13T13:58:56.883Z,14.57
2022-10-13T14:01:25.636Z,15.45
2022-10-13T14:03:53.198Z,17.92
2022-10-13T14:06:22.814Z,17.20
2022-10-13T14:08:51.701Z,17.17
2022-10-13T14:11:19.353Z,16.50
2022-10-13T14:13:46.965Z,16.35
2022-10-13T14:16:18.562Z,16.17
2022-10-13T14:18:46.176Z,16.98
2022-10-13T14:21:13.718Z,15.82
2022-10-13T14:23:46.688Z,16.67
2022-10-13T14:26:16.110Z,16.88
2022-10-13T14:28:44.621Z,15.45
2022-10-13T14:31:12.882Z,17.73
2022-10-13T14:33:40.437Z,17.38
2022-10-13T14:36:08.910Z,16.63
2022-10-13T14:38:36.658Z,17.15
2022-10-13T14:41:06.193Z,17.17
2022-10-13T14:43:35.067Z,19.17
2022-10-13T14:46:03.414Z,17.48
2022-10-13T14:48:31.945Z,17.40
2022-10-13T14:51:00.071Z,17.35
2022-10-13T14:53:28.591Z,18.65
2022-10-13T14:55:56.179Z,19.52
2022-10-13T14:58:23.702Z,17.58
2022-10-13T15:00:53.534Z,22.83
2022-10-13T15:03:21.119Z,18.60
2022-10-13T15:05:48.898Z,16.90
2022-10-13T15:08:16.455Z,17.70
2022-10-13T15:10:45.053Z,22.45
2022-10-13T15:13:12.952Z,20.00
2022-10-13T15:15:47.853Z,18.02
2022-10-13T15:18:16.775Z,23.85
2022-10-13T15:20:47.413Z,18.90
2022-10-13T15:23:15.492Z,15.70
2022-10-13T15:25:51.005Z,18.20
2022-10-13T15:28:18.869Z,16.27
2022-10-13T15:30:47.113Z,17.92
2022-10-13T15:33:16.063Z,16.92
2022-10-13T15:35:43.604Z,16.95
2022-10-13T15:38:11.144Z,17.48
2022-10-13T15:40:41.088Z,18.35
2022-10-13T15:43:09.007Z,19.83
2022-10-13T15:45:36.574Z,27.45
2022-10-13T15:48:05.951Z,20.08
2022-10-13T15:50:34.961Z,19.17
2022-10-13T15:53:02.581Z,28.55
2022-10-13T15:55:30.162Z,22.92
2022-10-13T15:57:58.199Z,20.90
2022-10-13T16:00:25.785Z,34.08
2022-10-13T16:02:53.411Z,29.23
2022-10-13T16:05:20.971Z,31.13
2022-10-13T16:07:49.871Z,21.65
2022-10-13T16:10:18.227Z,28.63
2022-10-13T16:12:49.602Z,22.17
2022-10-13T16:15:18.302Z,22.38
2022-10-13T16:17:46.266Z,18.80
2022-10-13T16:20:14.042Z,17.95
2022-10-13T16:22:41.607Z,46.15
2022-10-13T16:25:11.011Z,29.27
2022-10-13T16:27:43.840Z,23.50
2022-10-13T16:30:12.438Z,24.83
2022-10-13T16:32:40.743Z,36.88
2022-10-13T16:35:09.178Z,20.65
2022-10-13T16:37:36.921Z,26.10
2022-10-13T16:40:04.657Z,18.83
2022-10-13T16:42:33.583Z,18.58
2022-10-13T16:45:01.134Z,23.98
2022-10-13T16:47:28.894Z,27.60
2022-10-13T16:49:56.512Z,27.35
2022-10-13T16:52:24.049Z,20.55
2022-10-13T16:54:51.839Z,25.67
2022-10-13T16:57:19.608Z,21.67
2022-10-13T16:59:48.644Z,17.85
2022-10-13T17:02:16.252Z,19.40
2022-10-13T17:04:44.221Z,19.63
2022-10-13T17:07:11.910Z,16.25
2022-10-13T17:09:39.453Z,18.80
2022-10-13T17:12:07.614Z,16.98
2022-10-13T17:14:35.336Z,20.33
2022-10-13T17:17:04.307Z,17.75
2022-10-13T17:19:31.936Z,19.85
2022-10-13T17:21:59.528Z,18.83
2022-10-13T17:24:27.198Z,18.20
2022-10-13T17:26:54.767Z,18.15
2022-10-13T17:29:22.407Z,17.35
2022-10-13T17:31:49.967Z,16.63
2022-10-13T17:34:18.998Z,16.08
2022-10-13T17:36:46.559Z,43.40
2022-10-13T17:39:14.158Z,26.17
2022-10-13T17:41:42.363Z,20.95
2022-10-13T17:44:11.508Z,17.20
2022-10-13T17:46:39.789Z,18.92
2022-10-13T17:49:10.290Z,24.45
2022-10-13T17:51:39.798Z,30.10
2022-10-13T17:54:10.266Z,55.63
2022-10-13T17:56:42.170Z,56.97
2022-10-13T17:59:10.922Z,61.53
2022-10-13T18:01:41.920Z,40.83
2022-10-13T18:04:13.542Z,35.53
2022-10-13T18:06:44.943Z,23.75
2022-10-13T18:09:15.124Z,39.70
2022-10-13T18:11:49.506Z,72.60
2022-10-13T18:14:18.503Z,66.00
2022-10-13T18:16:46.749Z,26.15
2022-10-13T18:19:14.601Z,21.42
2022-10-13T18:21:43.760Z,22.00
2022-10-13T18:24:12.438Z,22.70
2022-10-13T18:26:40.766Z,28.75
2022-10-13T18:29:10.050Z,27.25
2022-10-13T18:31:39.450Z,29.85
2022-10-13T18:34:09.483Z,28.90
2022-10-13T18:36:39.111Z,27.42
2022-10-13T18:39:09.465Z,29.85
2022-10-13T18:41:38.054Z,28.73
2022-10-13T18:44:06.910Z,29.27
2022-10-13T18:46:35.510Z,36.58
2022-10-13T18:49:03.515Z,29.77
2022-10-13T18:51:35.905Z,34.03
2022-10-13T18:54:03.828Z,25.52
2022-10-13T18:56:34.495Z,24.80
2022-10-13T18:59:03.112Z,27.48
2022-10-13T19:01:35.079Z,22.55
2022-10-13T19:04:03.010Z,20.50
2022-10-13T19:06:32.301Z,20.75
2022-10-13T19:09:01.861Z,18.40
2022-10-13T19:11:30.669Z,18.20
2022-10-13T19:14:00.615Z,18.73
2022-10-13T19:16:30.409Z,19.25
2022-10-13T19:18:58.279Z,22.15
2022-10-13T19:21:26.287Z,22.27
2022-10-13T19:23:54.025Z,22.20
2022-10-13T19:26:23.821Z,19.95
2022-10-13T19:28:54.907Z,23.95
2022-10-13T19:31:27.394Z,21.85
2022-10-13T19:33:55.947Z,21.30
2022-10-13T19:36:26.063Z,20.45
2022-10-13T19:38:54.033Z,21.80
2022-10-13T19:41:22.090Z,34.90
2022-10-13T19:43:50.058Z,20.75
2022-10-13T19:46:18.073Z,18.42
2022-10-13T19:48:47.167Z,19.00
2022-10-13T19:51:15.350Z,20.92
2022-10-13T19:53:42.927Z,16.90
2022-10-13T19:56:19.381Z,22.08
2022-10-13T19:58:46.951Z,20.42
2022-10-13T20:01:14.516Z,19.30
2022-10-13T20:03:42.727Z,18.83
2022-10-13T20:06:11.903Z,20.77
2022-10-13T20:08:39.725Z,19.27
2022-10-13T20:11:08.520Z,13.80
2022-10-13T20:13:36.555Z,12.57
2022-10-13T20:16:08.313Z,12.27
2022-10-13T20:18:36.267Z,14.90
2022-10-13T20:21:05.161Z,16.45
2022-10-13T20:23:34.629Z,16.58
2022-10-13T20:26:07.755Z,14.88
2022-10-13T20:28:41.872Z,14.82
2022-10-13T20:31:11.445Z,22.13
2022-10-13T20:33:39.570Z,18.50
2022-10-13T20:36:09.790Z,13.50
2022-10-13T20:38:38.959Z,14.30
2022-10-13T20:41:08.061Z,15.40
2022-10-13T20:43:35.991Z,14.23
2022-10-13T20:46:05.332Z,13.70
2022-10-13T20:48:57.693Z,15.55
2022-10-13T20:51:24.173Z,13.68
2022-10-13T20:53:53.415Z,15.10
2022-10-13T20:56:22.862Z,16.55
2022-10-13T20:58:50.686Z,17.23
2022-10-13T21:01:20.408Z,15.77
2022-10-13T21:03:51.591Z,18.95
2022-10-13T21:06:20.590Z,13.27
2022-10-13T21:08:48.693Z,12.25
2022-10-13T21:11:20.783Z,12.57
2022-10-13T21:13:49.479Z,12.98
2022-10-13T21:16:19.704Z,12.90
2022-10-13T21:18:48.936Z,17.85
2022-10-13T21:21:18.582Z,24.42
2022-10-13T21:23:46.256Z,14.98
2022-10-13T21:26:17.603Z,13.02
2022-10-13T21:28:51.300Z,14.55
2022-10-13T21:31:21.370Z,13.30
2022-10-13T21:33:49.646Z,12.63
2022-10-13T21:36:19.498Z,13.43
2022-10-13T21:38:48.186Z,17.30
2022-10-13T21:41:16.367Z,14.82
2022-10-13T21:43:43.906Z,15.07
2022-10-13T21:46:14.713Z,14.95
2022-10-13T21:48:42.603Z,13.88
2022-10-13T21:51:14.930Z,15.27
2022-10-13T21:53:43.147Z,16.85
2022-10-13T21:56:12.310Z,18.80
2022-10-13T21:58:40.129Z,16.83
2022-10-13T22:01:08.067Z,16.70
2022-10-13T22:03:37.242Z,14.75
2022-10-13T22:06:06.716Z,15.90
2022-10-13T22:08:38.541Z,13.63
2022-10-13T22:11:07.635Z,14.10
2022-10-13T22:13:36.850Z,13.18
2022-10-13T22:16:05.094Z,12.07
2022-10-13T22:18:32.657Z,11.80
2022-10-13T22:21:03.013Z,12.23
2022-10-13T22:23:30.731Z,11.60
2022-10-13T22:25:58.286Z,10.48
2022-10-13T22:28:25.958Z,10.57
2022-10-13T22:30:53.927Z,10.35
2022-10-13T22:33:21.836Z,9.95
2022-10-13T22:35:49.370Z,10.43
2022-10-13T22:38:18.265Z,9.85
2022-10-13T22:40:45.803Z,9.15
2022-10-13T22:43:13.344Z,9.90
2022-10-13T22:45:49.884Z,9.75
2022-10-13T22:48:17.493Z,9.88
2022-10-13T22:50:45.076Z,9.35
2022-10-13T22:53:12.737Z,9.77
2022-10-13T22:55:41.895Z,10.50
2022-10-13T22:58:09.724Z,9.70
2022-10-13T23:00:38.338Z,9.52
2022-10-13T23:03:06.870Z,10.00
2022-10-13T23:05:34.482Z,9.57
2022-10-13T23:08:02.109Z,9.18
2022-10-13T23:10:29.640Z,9.98
2022-10-13T23:12:58.530Z,11.15
2022-10-13T23:15:26.093Z,11.98
2022-10-13T23:17:53.678Z,11.15
2022-10-13T23:20:21.210Z,10.70
2022-10-13T23:23:46.202Z,10.93
2022-10-13T23:26:15.641Z,10.68
2022-10-13T23:28:45.051Z,10.00
2022-10-13T23:31:14.662Z,10.80
2022-10-13T23:33:42.498Z,10.85
2022-10-13T23:36:14.599Z,10.90
2022-10-13T23:38:42.231Z,10.85
2022-10-13T23:41:12.088Z,10.27
2022-10-13T23:43:40.426Z,10.25
2022-10-13T23:46:11.174Z,10.85
2022-10-13T23:48:39.585Z,10.77
2022-10-13T23:51:09.683Z,11.55
2022-10-13T23:53:38.714Z,10.95
2022-10-13T23:56:10.879Z,11.38
2022-10-13T23:58:44.477Z,10.77
